createdAt,value
2018-04-22T00:00:48.892Z,1012.84
2018-04-22T00:01:48.852Z,1012.83
2018-04-22T00:02:48.850Z,1012.81
2018-04-22T00:03:48.804Z,1012.80
2018-04-22T00:04:48.821Z,1012.79
2018-04-22T00:05:48.773Z,1012.78
2018-04-22T00:06:48.735Z,1012.76
2018-04-22T00:07:48.723Z,1012.74
2018-04-22T00:08:48.688Z,1012.75
2018-04-22T00:09:48.665Z,1012.73
2018-04-22T00:10:48.660Z,1012.76
2018-04-22T00:11:48.616Z,1012.82
2018-04-22T00:12:48.601Z,1012.82
2018-04-22T00:13:48.582Z,1012.80
2018-04-22T00:14:48.547Z,1012.76
2018-04-22T00:15:48.535Z,1012.72
2018-04-22T00:16:48.507Z,1012.80
2018-04-22T00:17:48.507Z,1012.77
2018-04-22T00:18:48.449Z,1012.75
2018-04-22T00:19:48.455Z,1012.76
2018-04-22T00:20:48.436Z,1012.76
2018-04-22T00:21:48.388Z,1012.75
2018-04-22T00:22:48.363Z,1012.78
2018-04-22T00:23:48.349Z,1012.79
2018-04-22T00:24:48.312Z,1012.77
2018-04-22T00:25:48.288Z,1012.74
2018-04-22T00:26:48.266Z,1012.73
2018-04-22T00:27:48.250Z,1012.73
2018-04-22T00:28:48.215Z,1012.72
2018-04-22T00:29:48.197Z,1012.68
2018-04-22T00:30:48.170Z,1012.73
2018-04-22T00:31:48.144Z,1012.67
2018-04-22T00:32:48.123Z,1012.70
2018-04-22T00:33:48.100Z,1012.69
2018-04-22T00:34:48.083Z,1012.70
2018-04-22T00:35:48.054Z,1012.68
2018-04-22T00:36:48.028Z,1012.64
2018-04-22T00:37:48.004Z,1012.61
2018-04-22T00:38:47.983Z,1012.56
2018-04-22T00:39:47.960Z,1012.58
2018-04-22T00:40:47.948Z,1012.53
2018-04-22T00:41:47.910Z,1012.53
2018-04-22T00:42:47.883Z,1012.48
2018-04-22T00:43:47.860Z,1012.51
2018-04-22T00:44:47.835Z,1012.49
2018-04-22T00:45:47.812Z,1012.43
2018-04-22T00:46:47.805Z,1012.43
2018-04-22T00:47:47.770Z,1012.45
2018-04-22T00:48:47.748Z,1012.40
2018-04-22T00:49:47.747Z,1012.37
2018-04-22T00:50:47.701Z,1012.36
2018-04-22T00:51:47.675Z,1012.29
2018-04-22T00:52:47.656Z,1012.27
2018-04-22T00:53:47.636Z,1012.28
2018-04-22T00:54:47.600Z,1012.26
2018-04-22T00:55:47.582Z,1012.23
2018-04-22T00:56:47.559Z,1012.27
2018-04-22T00:57:47.526Z,1012.24
2018-04-22T00:58:47.505Z,1012.22
2018-04-22T00:59:47.483Z,1012.21
2018-04-22T01:00:47.469Z,1012.17
2018-04-22T01:01:47.434Z,1012.17
2018-04-22T01:02:47.418Z,1012.14
2018-04-22T01:03:47.398Z,1012.12
2018-04-22T01:04:47.371Z,1012.12
2018-04-22T01:05:47.339Z,1012.08
2018-04-22T01:06:47.318Z,1012.08
2018-04-22T01:07:47.293Z,1012.09
2018-04-22T01:08:47.270Z,1012.07
2018-04-22T01:09:47.248Z,1012.06
2018-04-22T01:10:47.230Z,1011.99
2018-04-22T01:11:47.193Z,1011.97
2018-04-22T01:12:47.180Z,1011.95
2018-04-22T01:13:47.154Z,1011.93
2018-04-22T01:14:47.130Z,1011.96
2018-04-22T01:15:47.117Z,1011.92
2018-04-22T01:16:47.080Z,1011.89
2018-04-22T01:17:47.058Z,1011.92
2018-04-22T01:18:47.034Z,1011.90
2018-04-22T01:19:47.004Z,1011.86
2018-04-22T01:20:46.983Z,1011.87
2018-04-22T01:21:46.957Z,1011.87
2018-04-22T01:22:46.939Z,1011.85
2018-04-22T01:23:46.922Z,1011.84
2018-04-22T01:24:46.894Z,1011.85
2018-04-22T01:25:46.870Z,1011.85
2018-04-22T01:26:46.841Z,1011.87
2018-04-22T01:27:46.813Z,1011.85
2018-04-22T01:28:46.808Z,1011.88
2018-04-22T01:29:46.772Z,1011.87
2018-04-22T01:30:46.757Z,1011.87
2018-04-22T01:31:46.726Z,1011.86
2018-04-22T01:32:46.698Z,1011.84
2018-04-22T01:33:46.676Z,1011.83
2018-04-22T01:34:46.657Z,1011.84
2018-04-22T01:35:46.628Z,1011.80
2018-04-22T01:36:46.602Z,1011.79
2018-04-22T01:37:46.581Z,1011.83
2018-04-22T01:38:46.556Z,1011.81
2018-04-22T01:39:46.538Z,1011.81
2018-04-22T01:40:46.506Z,1011.79
2018-04-22T01:41:46.489Z,1011.79
2018-04-22T01:42:46.458Z,1011.81
2018-04-22T01:43:46.440Z,1011.78
2018-04-22T01:44:46.417Z,1011.79
2018-04-22T01:45:46.394Z,1011.76
2018-04-22T01:46:46.438Z,1011.79
2018-04-22T01:47:46.348Z,1011.73
2018-04-22T01:48:46.319Z,1011.72
2018-04-22T01:49:46.296Z,1011.73
2018-04-22T01:50:46.281Z,1011.74
2018-04-22T01:51:46.242Z,1011.68
2018-04-22T01:52:46.228Z,1011.70
2018-04-22T01:53:46.200Z,1011.68
2018-04-22T01:54:46.172Z,1011.69
2018-04-22T01:55:46.153Z,1011.66
2018-04-22T01:56:46.126Z,1011.59
2018-04-22T01:57:46.109Z,1011.59
2018-04-22T01:58:46.070Z,1011.59
2018-04-22T01:59:46.060Z,1011.56
2018-04-22T02:00:46.031Z,1011.55
2018-04-22T02:01:45.999Z,1011.56
2018-04-22T02:02:45.991Z,1011.51
2018-04-22T02:03:45.953Z,1011.48
2018-04-22T02:04:45.931Z,1011.50
2018-04-22T02:05:45.909Z,1011.51
2018-04-22T02:06:45.884Z,1011.49
2018-04-22T02:07:45.863Z,1011.49
2018-04-22T02:08:45.832Z,1011.45
2018-04-22T02:09:45.810Z,1011.45
2018-04-22T02:10:45.789Z,1011.43
2018-04-22T02:11:45.761Z,1011.44
2018-04-22T02:12:45.742Z,1011.45
2018-04-22T02:13:45.723Z,1011.45
2018-04-22T02:14:45.693Z,1011.40
2018-04-22T02:15:45.666Z,1011.41
2018-04-22T02:16:45.645Z,1011.38
2018-04-22T02:17:45.618Z,1011.40
2018-04-22T02:18:45.589Z,1011.37
2018-04-22T02:19:45.571Z,1011.38
2018-04-22T02:20:45.548Z,1011.40
2018-04-22T02:21:45.525Z,1011.36
2018-04-22T02:22:45.499Z,1011.34
2018-04-22T02:23:45.474Z,1011.35
2018-04-22T02:24:45.454Z,1011.36
2018-04-22T02:25:45.423Z,1011.34
2018-04-22T02:26:45.422Z,1011.31
2018-04-22T02:27:45.373Z,1011.27
2018-04-22T02:28:45.358Z,1011.27
2018-04-22T02:29:45.337Z,1011.24
2018-04-22T02:30:45.299Z,1011.24
2018-04-22T02:31:45.283Z,1011.21
2018-04-22T02:32:45.251Z,1011.19
2018-04-22T02:33:45.232Z,1011.17
2018-04-22T02:34:45.206Z,1011.16
2018-04-22T02:35:45.183Z,1011.16
2018-04-22T02:36:45.160Z,1011.16
2018-04-22T02:37:45.140Z,1011.14
2018-04-22T02:38:45.106Z,1011.11
2018-04-22T02:39:45.092Z,1011.10
2018-04-22T02:40:45.057Z,1011.11
2018-04-22T02:41:45.035Z,1011.11
2018-04-22T02:42:45.015Z,1011.14
2018-04-22T02:43:44.993Z,1011.13
2018-04-22T02:44:44.961Z,1011.10
2018-04-22T02:45:44.942Z,1011.07
2018-04-22T02:46:44.914Z,1011.07
2018-04-22T02:47:44.886Z,1011.02
2018-04-22T02:48:44.871Z,1011.06
2018-04-22T02:49:44.848Z,1011.03
2018-04-22T02:50:44.828Z,1011.02
2018-04-22T02:51:44.803Z,1011.00
2018-04-22T02:52:44.775Z,1010.98
2018-04-22T02:53:44.750Z,1010.98
2018-04-22T02:54:44.725Z,1010.90
2018-04-22T02:55:44.706Z,1010.91
2018-04-22T02:56:44.676Z,1010.89
2018-04-22T02:57:44.645Z,1010.89
2018-04-22T02:58:44.633Z,1010.88
2018-04-22T02:59:44.594Z,1010.86
2018-04-22T03:00:44.579Z,1010.85
2018-04-22T03:01:44.554Z,1010.83
2018-04-22T03:02:44.528Z,1010.75
2018-04-22T03:03:44.558Z,1010.79
2018-04-22T03:04:44.474Z,1010.76
2018-04-22T03:05:44.455Z,1010.72
2018-04-22T03:06:44.433Z,1010.74
2018-04-22T03:07:44.402Z,1010.73
2018-04-22T03:08:44.385Z,1010.70
2018-04-22T03:09:44.359Z,1010.71
2018-04-22T03:10:44.333Z,1010.67
2018-04-22T03:11:44.310Z,1010.70
2018-04-22T03:12:44.301Z,1010.69
2018-04-22T03:13:44.259Z,1010.68
2018-04-22T03:14:44.236Z,1010.73
2018-04-22T03:15:44.211Z,1010.73
2018-04-22T03:16:44.189Z,1010.68
2018-04-22T03:17:44.168Z,1010.71
2018-04-22T03:18:44.142Z,1010.71
2018-04-22T03:19:44.118Z,1010.68
2018-04-22T03:20:44.089Z,1010.67
2018-04-22T03:21:44.064Z,1010.62
2018-04-22T03:22:44.044Z,1010.65
2018-04-22T03:23:44.020Z,1010.67
2018-04-22T03:24:43.991Z,1010.63
2018-04-22T03:25:43.972Z,1010.62
2018-04-22T03:26:43.940Z,1010.59
2018-04-22T03:27:43.918Z,1010.60
2018-04-22T03:28:43.898Z,1010.54
2018-04-22T03:29:43.886Z,1010.56
2018-04-22T03:30:43.844Z,1010.56
2018-04-22T03:31:43.819Z,1010.54
2018-04-22T03:32:43.800Z,1010.54
2018-04-22T03:33:43.771Z,1010.51
2018-04-22T03:34:43.749Z,1010.48
2018-04-22T03:35:43.732Z,1010.43
2018-04-22T03:36:43.694Z,1010.38
2018-04-22T03:37:43.677Z,1010.37
2018-04-22T03:38:43.658Z,1010.33
2018-04-22T03:39:43.624Z,1010.31
2018-04-22T03:40:43.608Z,1010.28
2018-04-22T03:41:43.587Z,1010.29
2018-04-22T03:42:43.556Z,1010.26
2018-04-22T03:43:43.533Z,1010.26
2018-04-22T03:44:43.502Z,1010.26
2018-04-22T03:45:43.479Z,1010.29
2018-04-22T03:46:43.457Z,1010.27
2018-04-22T03:47:43.440Z,1010.24
2018-04-22T03:48:43.425Z,1010.29
2018-04-22T03:49:43.401Z,1010.28
2018-04-22T03:50:43.358Z,1010.30
2018-04-22T03:51:43.336Z,1010.31
2018-04-22T03:52:43.315Z,1010.34
2018-04-22T03:53:43.286Z,1010.32
2018-04-22T03:54:43.260Z,1010.31
2018-04-22T03:55:43.240Z,1010.30
2018-04-22T03:56:43.209Z,1010.27
2018-04-22T03:57:43.194Z,1010.30
2018-04-22T03:58:43.180Z,1010.28
2018-04-22T03:59:43.141Z,1010.26
2018-04-22T04:00:43.117Z,1010.27
2018-04-22T04:01:43.093Z,1010.23
2018-04-22T04:02:43.071Z,1010.24
2018-04-22T04:03:43.038Z,1010.25
2018-04-22T04:04:43.025Z,1010.24
2018-04-22T04:05:42.997Z,1010.26
2018-04-22T04:06:42.966Z,1010.24
2018-04-22T04:07:42.950Z,1010.27
2018-04-22T04:08:43.575Z,1010.26
2018-04-22T04:09:42.894Z,1010.23
2018-04-22T04:10:42.870Z,1010.24
2018-04-22T04:11:42.846Z,1010.27
2018-04-22T04:12:42.821Z,1010.25
2018-04-22T04:13:42.809Z,1010.29
2018-04-22T04:14:42.772Z,1010.26
2018-04-22T04:15:42.754Z,1010.25
2018-04-22T04:16:42.727Z,1010.17
2018-04-22T04:17:42.704Z,1010.16
2018-04-22T04:18:42.677Z,1010.09
2018-04-22T04:19:42.650Z,1010.04
2018-04-22T04:20:42.631Z,1010.00
2018-04-22T04:21:42.607Z,1009.98
2018-04-22T04:22:42.577Z,1009.96
2018-04-22T04:23:42.555Z,1009.94
2018-04-22T04:24:42.528Z,1009.92
2018-04-22T04:25:42.510Z,1009.95
2018-04-22T04:26:42.481Z,1009.96
2018-04-22T04:27:42.460Z,1009.95
2018-04-22T04:28:42.433Z,1009.96
2018-04-22T04:29:42.404Z,1009.99
2018-04-22T04:30:42.418Z,1009.99
2018-04-22T04:31:42.363Z,1009.98
2018-04-22T04:32:42.332Z,1009.97
2018-04-22T04:33:42.314Z,1009.96
2018-04-22T04:34:42.297Z,1009.94
2018-04-22T04:35:42.256Z,1009.96
2018-04-22T04:36:42.241Z,1009.94
2018-04-22T04:37:42.223Z,1009.93
2018-04-22T04:38:42.190Z,1009.87
2018-04-22T04:39:42.169Z,1009.91
2018-04-22T04:40:42.140Z,1009.87
2018-04-22T04:41:42.112Z,1009.86
2018-04-22T04:42:42.105Z,1009.84
2018-04-22T04:43:42.073Z,1009.85
2018-04-22T04:44:42.046Z,1009.85
2018-04-22T04:45:42.024Z,1009.87
2018-04-22T04:46:41.989Z,1009.90
2018-04-22T04:47:41.967Z,1009.87
2018-04-22T04:48:41.946Z,1009.86
2018-04-22T04:49:41.924Z,1009.86
2018-04-22T04:50:41.897Z,1009.86
2018-04-22T04:51:41.876Z,1009.87
2018-04-22T04:52:41.844Z,1009.82
2018-04-22T04:53:41.828Z,1009.85
2018-04-22T04:54:41.798Z,1009.79
2018-04-22T04:55:41.772Z,1009.77
2018-04-22T04:56:41.761Z,1009.75
2018-04-22T04:57:41.727Z,1009.72
2018-04-22T04:58:41.703Z,1009.72
2018-04-22T04:59:41.674Z,1009.73
2018-04-22T05:00:41.655Z,1009.75
2018-04-22T05:01:41.633Z,1009.77
2018-04-22T05:02:41.604Z,1009.75
2018-04-22T05:03:41.587Z,1009.72
2018-04-22T05:04:41.559Z,1009.69
2018-04-22T05:05:41.535Z,1009.73
2018-04-22T05:06:41.511Z,1009.72
2018-04-22T05:07:41.488Z,1009.72
2018-04-22T05:08:41.462Z,1009.70
2018-04-22T05:09:41.438Z,1009.69
2018-04-22T05:10:41.465Z,1009.67
2018-04-22T05:11:41.390Z,1009.73
2018-04-22T05:12:41.369Z,1009.70
2018-04-22T05:13:41.339Z,1009.70
2018-04-22T05:14:41.312Z,1009.71
2018-04-22T05:15:41.298Z,1009.70
2018-04-22T05:16:41.271Z,1009.66
2018-04-22T05:17:41.245Z,1009.67
2018-04-22T05:18:41.234Z,1009.63
2018-04-22T05:19:41.193Z,1009.63
2018-04-22T05:20:41.189Z,1009.62
2018-04-22T05:21:41.144Z,1009.60
2018-04-22T05:22:41.127Z,1009.62
2018-04-22T05:23:41.107Z,1009.60
2018-04-22T05:24:41.075Z,1009.60
2018-04-22T05:25:41.066Z,1009.58
2018-04-22T05:26:41.033Z,1009.59
2018-04-22T05:27:41.002Z,1009.57
2018-04-22T05:28:40.985Z,1009.55
2018-04-22T05:29:40.965Z,1009.59
2018-04-22T05:30:40.937Z,1009.55
2018-04-22T05:31:40.908Z,1009.56
2018-04-22T05:32:40.882Z,1009.56
2018-04-22T05:33:40.868Z,1009.52
2018-04-22T05:34:40.832Z,1009.54
2018-04-22T05:35:40.821Z,1009.49
2018-04-22T05:36:40.813Z,1009.51
2018-04-22T05:37:40.793Z,1009.56
2018-04-22T05:38:40.743Z,1009.55
2018-04-22T05:39:40.735Z,1009.56
2018-04-22T05:40:40.697Z,1009.58
2018-04-22T05:41:40.675Z,1009.55
2018-04-22T05:42:40.659Z,1009.52
2018-04-22T05:43:40.651Z,1009.51
2018-04-22T05:44:40.599Z,1009.51
2018-04-22T05:45:40.583Z,1009.49
2018-04-22T05:46:40.562Z,1009.52
2018-04-22T05:47:40.523Z,1009.49
2018-04-22T05:48:40.560Z,1009.51
2018-04-22T05:49:40.487Z,1009.51
2018-04-22T05:50:40.491Z,1009.48
2018-04-22T05:51:40.433Z,1009.43
2018-04-22T05:52:40.425Z,1009.39
2018-04-22T05:53:40.388Z,1009.42
2018-04-22T05:54:40.364Z,1009.43
2018-04-22T05:55:40.342Z,1009.34
2018-04-22T05:56:40.332Z,1009.35
2018-04-22T05:57:40.287Z,1009.34
2018-04-22T05:58:40.276Z,1009.32
2018-04-22T05:59:40.356Z,1009.31
2018-04-22T06:00:40.222Z,1009.30
2018-04-22T06:01:40.330Z,1009.33
2018-04-22T06:02:40.179Z,1009.30
2018-04-22T06:03:40.160Z,1009.29
2018-04-22T06:04:40.120Z,1009.29
2018-04-22T06:05:40.114Z,1009.28
2018-04-22T06:06:40.089Z,1009.23
2018-04-22T06:07:40.050Z,1009.21
2018-04-22T06:08:40.060Z,1009.17
2018-04-22T06:09:40.061Z,1009.15
2018-04-22T06:10:40.016Z,1009.15
2018-04-22T06:11:40.651Z,1009.16
2018-04-22T06:12:39.934Z,1009.16
2018-04-22T06:13:39.908Z,1009.18
2018-04-22T06:14:39.883Z,1009.24
2018-04-22T06:15:39.862Z,1009.20
2018-04-22T06:16:39.851Z,1009.19
2018-04-22T06:17:39.826Z,1009.15
2018-04-22T06:18:39.793Z,1009.13
2018-04-22T06:19:39.773Z,1009.16
2018-04-22T06:20:39.766Z,1009.16
2018-04-22T06:21:39.718Z,1009.16
2018-04-22T06:22:39.709Z,1009.12
2018-04-22T06:23:39.667Z,1009.11
2018-04-22T06:24:39.647Z,1009.07
2018-04-22T06:25:39.620Z,1009.08
2018-04-22T06:26:39.609Z,1009.01
2018-04-22T06:27:39.579Z,1008.98
2018-04-22T06:28:39.553Z,1009.00
2018-04-22T06:29:39.538Z,1008.96
2018-04-22T06:30:39.508Z,1008.94
2018-04-22T06:31:39.492Z,1008.97
2018-04-22T06:32:39.463Z,1008.93
2018-04-22T06:33:39.440Z,1008.90
2018-04-22T06:34:39.411Z,1008.86
2018-04-22T06:35:39.437Z,1008.80
2018-04-22T06:36:39.425Z,1008.82
2018-04-22T06:37:39.341Z,1008.83
2018-04-22T06:38:39.318Z,1008.80
2018-04-22T06:39:39.293Z,1008.78
2018-04-22T06:40:39.272Z,1008.75
2018-04-22T06:41:39.271Z,1008.73
2018-04-22T06:42:39.220Z,1008.72
2018-04-22T06:43:39.207Z,1008.71
2018-04-22T06:44:39.178Z,1008.73
2018-04-22T06:45:39.157Z,1008.72
2018-04-22T06:46:39.134Z,1008.69
2018-04-22T06:47:39.109Z,1008.67
2018-04-22T06:48:39.104Z,1008.66
2018-04-22T06:49:39.060Z,1008.63
2018-04-22T06:50:39.036Z,1008.60
2018-04-22T06:51:39.021Z,1008.55
2018-04-22T06:52:38.994Z,1008.52
2018-04-22T06:53:38.966Z,1008.56
2018-04-22T06:54:38.949Z,1008.58
2018-04-22T06:55:38.927Z,1008.55
2018-04-22T06:56:38.909Z,1008.56
2018-04-22T06:57:38.874Z,1008.59
2018-04-22T06:58:38.858Z,1008.56
2018-04-22T06:59:38.830Z,1008.57
2018-04-22T07:00:38.813Z,1008.54
2018-04-22T07:01:38.784Z,1008.52
2018-04-22T07:02:38.764Z,1008.48
2018-04-22T07:03:38.744Z,1008.50
2018-04-22T07:04:38.717Z,1008.52
2018-04-22T07:05:38.698Z,1008.54
2018-04-22T07:06:38.674Z,1008.57
2018-04-22T07:07:38.651Z,1008.54
2018-04-22T07:08:38.629Z,1008.50
2018-04-22T07:09:38.619Z,1008.53
2018-04-22T07:10:38.588Z,1008.51
2018-04-22T07:11:38.559Z,1008.52
2018-04-22T07:12:38.539Z,1008.51
2018-04-22T07:13:38.515Z,1008.54
2018-04-22T07:14:38.486Z,1008.54
2018-04-22T07:15:38.463Z,1008.50
2018-04-22T07:16:38.450Z,1008.53
2018-04-22T07:17:38.418Z,1008.50
2018-04-22T07:18:38.393Z,1008.53
2018-04-22T07:19:38.380Z,1008.54
2018-04-22T07:20:38.352Z,1008.55
2018-04-22T07:21:38.331Z,1008.54
2018-04-22T07:22:38.307Z,1008.51
2018-04-22T07:23:38.286Z,1008.50
2018-04-22T07:24:38.255Z,1008.48
2018-04-22T07:25:38.239Z,1008.49
2018-04-22T07:26:38.213Z,1008.43
2018-04-22T07:27:38.193Z,1008.50
2018-04-22T07:28:38.173Z,1008.48
2018-04-22T07:29:38.144Z,1008.48
2018-04-22T07:30:38.125Z,1008.45
2018-04-22T07:31:38.106Z,1008.39
2018-04-22T07:32:38.075Z,1008.42
2018-04-22T07:33:38.060Z,1008.40
2018-04-22T07:34:38.030Z,1008.36
2018-04-22T07:35:38.011Z,1008.37
2018-04-22T07:36:37.989Z,1008.37
2018-04-22T07:37:37.962Z,1008.40
2018-04-22T07:38:37.940Z,1008.39
2018-04-22T07:39:37.914Z,1008.40
2018-04-22T07:40:37.902Z,1008.38
2018-04-22T07:41:37.882Z,1008.39
2018-04-22T07:42:37.902Z,1008.38
2018-04-22T07:43:37.829Z,1008.38
2018-04-22T07:44:37.805Z,1008.41
2018-04-22T07:45:37.783Z,1008.37
2018-04-22T07:46:37.763Z,1008.37
2018-04-22T07:47:37.736Z,1008.37
2018-04-22T07:48:37.736Z,1008.40
2018-04-22T07:49:37.694Z,1008.38
2018-04-22T07:50:37.676Z,1008.42
2018-04-22T07:51:37.651Z,1008.40
2018-04-22T07:52:37.624Z,1008.39
2018-04-22T07:53:37.604Z,1008.43
2018-04-22T07:54:37.576Z,1008.43
2018-04-22T07:55:37.581Z,1008.48
2018-04-22T07:56:37.539Z,1008.42
2018-04-22T07:57:37.517Z,1008.45
2018-04-22T07:58:37.491Z,1008.42
2018-04-22T07:59:37.470Z,1008.36
2018-04-22T08:00:37.443Z,1008.34
2018-04-22T08:01:37.423Z,1008.36
2018-04-22T08:02:37.411Z,1008.35
2018-04-22T08:03:37.378Z,1008.33
2018-04-22T08:04:37.365Z,1008.36
2018-04-22T08:05:37.345Z,1008.37
2018-04-22T08:06:37.317Z,1008.32
2018-04-22T08:07:37.297Z,1008.35
2018-04-22T08:08:37.273Z,1008.32
2018-04-22T08:09:37.246Z,1008.34
2018-04-22T08:10:37.235Z,1008.40
2018-04-22T08:11:37.206Z,1008.37
2018-04-22T08:12:37.179Z,1008.37
2018-04-22T08:13:37.166Z,1008.40
2018-04-22T08:14:37.134Z,1008.36
2018-04-22T08:15:37.117Z,1008.31
2018-04-22T08:16:37.100Z,1008.30
2018-04-22T08:17:37.076Z,1008.26
2018-04-22T08:18:37.045Z,1008.21
2018-04-22T08:19:37.030Z,1008.19
2018-04-22T08:20:37.010Z,1008.19
2018-04-22T08:21:36.990Z,1008.18
2018-04-22T08:22:36.967Z,1008.17
2018-04-22T08:23:36.941Z,1008.19
2018-04-22T08:24:36.917Z,1008.17
2018-04-22T08:25:36.896Z,1008.17
2018-04-22T08:26:36.875Z,1008.16
2018-04-22T08:27:36.851Z,1008.17
2018-04-22T08:28:36.834Z,1008.14
2018-04-22T08:29:36.812Z,1008.16
2018-04-22T08:30:36.789Z,1008.14
2018-04-22T08:31:36.766Z,1008.11
2018-04-22T08:32:36.745Z,1008.14
2018-04-22T08:33:36.719Z,1008.07
2018-04-22T08:34:36.711Z,1008.06
2018-04-22T08:35:36.680Z,1008.08
2018-04-22T08:36:36.655Z,1008.02
2018-04-22T08:37:36.644Z,1008.03
2018-04-22T08:38:36.612Z,1008.04
2018-04-22T08:39:36.590Z,1008.05
2018-04-22T08:40:36.576Z,1008.06
2018-04-22T08:41:36.555Z,1008.04
2018-04-22T08:42:36.574Z,1008.06
2018-04-22T08:43:36.511Z,1008.02
2018-04-22T08:44:36.492Z,1008.07
2018-04-22T08:45:36.464Z,1008.06
2018-04-22T08:46:36.444Z,1008.02
2018-04-22T08:47:36.423Z,1008.04
2018-04-22T08:48:36.407Z,1008.03
2018-04-22T08:49:36.376Z,1008.04
2018-04-22T08:50:36.406Z,1008.05
2018-04-22T08:51:36.333Z,1008.10
2018-04-22T08:52:36.342Z,1008.10
2018-04-22T08:53:36.293Z,1008.07
2018-04-22T08:54:36.285Z,1008.02
2018-04-22T08:55:36.258Z,1008.00
2018-04-22T08:56:36.230Z,1007.98
2018-04-22T08:57:36.210Z,1008.00
2018-04-22T08:58:36.188Z,1007.99
2018-04-22T08:59:36.176Z,1007.96
2018-04-22T09:00:36.143Z,1007.92
2018-04-22T09:01:36.134Z,1007.93
2018-04-22T09:02:36.103Z,1007.90
2018-04-22T09:03:36.080Z,1007.83
2018-04-22T09:04:36.056Z,1007.87
2018-04-22T09:05:36.033Z,1007.85
2018-04-22T09:06:36.019Z,1007.86
2018-04-22T09:07:36.001Z,1007.86
2018-04-22T09:08:35.978Z,1007.83
2018-04-22T09:09:35.956Z,1007.82
2018-04-22T09:10:35.929Z,1007.81
2018-04-22T09:11:35.912Z,1007.80
2018-04-22T09:12:35.891Z,1007.80
2018-04-22T09:13:35.874Z,1007.81
2018-04-22T09:14:35.844Z,1007.75
2018-04-22T09:15:35.830Z,1007.68
2018-04-22T09:16:35.800Z,1007.70
2018-04-22T09:17:35.804Z,1007.73
2018-04-22T09:18:35.759Z,1007.72
2018-04-22T09:19:35.744Z,1007.68
2018-04-22T09:20:35.720Z,1007.68
2018-04-22T09:21:35.712Z,1007.64
2018-04-22T09:22:35.680Z,1007.61
2018-04-22T09:23:35.660Z,1007.66
2018-04-22T09:24:35.638Z,1007.65
2018-04-22T09:25:35.617Z,1007.68
2018-04-22T09:26:35.591Z,1007.64
2018-04-22T09:27:35.571Z,1007.60
2018-04-22T09:28:35.561Z,1007.62
2018-04-22T09:29:35.528Z,1007.63
2018-04-22T09:30:35.516Z,1007.63
2018-04-22T09:31:35.488Z,1007.59
2018-04-22T09:32:35.483Z,1007.62
2018-04-22T09:33:35.454Z,1007.59
2018-04-22T09:34:35.434Z,1007.57
2018-04-22T09:35:35.415Z,1007.65
2018-04-22T09:36:35.397Z,1007.64
2018-04-22T09:37:35.376Z,1007.62
2018-04-22T09:38:35.351Z,1007.63
2018-04-22T09:39:35.333Z,1007.60
2018-04-22T09:40:35.311Z,1007.63
2018-04-22T09:41:35.296Z,1007.65
2018-04-22T09:42:35.261Z,1007.64
2018-04-22T09:43:35.241Z,1007.64
2018-04-22T09:44:35.229Z,1007.59
2018-04-22T09:45:35.204Z,1007.61
2018-04-22T09:46:35.186Z,1007.59
2018-04-22T09:47:35.176Z,1007.61
2018-04-22T09:48:35.143Z,1007.54
2018-04-22T09:49:35.123Z,1007.56
2018-04-22T09:50:35.106Z,1007.54
2018-04-22T09:51:35.083Z,1007.53
2018-04-22T09:52:35.064Z,1007.53
2018-04-22T09:53:35.046Z,1007.50
2018-04-22T09:54:35.029Z,1007.47
2018-04-22T09:55:35.009Z,1007.52
2018-04-22T09:56:34.978Z,1007.48
2018-04-22T09:57:34.959Z,1007.45
2018-04-22T09:58:34.940Z,1007.47
2018-04-22T09:59:34.914Z,1007.47
2018-04-22T10:00:34.896Z,1007.45
2018-04-22T10:01:34.878Z,1007.42
2018-04-22T10:02:34.876Z,1007.39
2018-04-22T10:03:34.839Z,1007.41
2018-04-22T10:04:34.818Z,1007.40
2018-04-22T10:05:34.802Z,1007.42
2018-04-22T10:06:34.773Z,1007.38
2018-04-22T10:07:34.755Z,1007.40
2018-04-22T10:08:34.739Z,1007.34
2018-04-22T10:09:34.718Z,1007.35
2018-04-22T10:10:34.694Z,1007.35
2018-04-22T10:11:34.677Z,1007.34
2018-04-22T10:12:34.662Z,1007.40
2018-04-22T10:13:34.644Z,1007.38
2018-04-22T10:14:34.622Z,1007.34
2018-04-22T10:15:34.592Z,1007.32
2018-04-22T10:16:34.580Z,1007.30
2018-04-22T10:17:34.565Z,1007.28
2018-04-22T10:18:34.540Z,1007.25
2018-04-22T10:19:34.521Z,1007.23
2018-04-22T10:20:34.501Z,1007.20
2018-04-22T10:21:34.493Z,1007.20
2018-04-22T10:22:34.456Z,1007.25
2018-04-22T10:23:34.439Z,1007.22
2018-04-22T10:24:34.420Z,1007.21
2018-04-22T10:25:34.402Z,1007.18
2018-04-22T10:26:34.384Z,1007.23
2018-04-22T10:27:34.359Z,1007.17
2018-04-22T10:28:34.344Z,1007.12
2018-04-22T10:29:34.324Z,1007.13
2018-04-22T10:30:34.304Z,1007.10
2018-04-22T10:31:34.280Z,1007.12
2018-04-22T10:32:34.264Z,1007.10
2018-04-22T10:33:34.244Z,1007.12
2018-04-22T10:34:34.295Z,1007.08
2018-04-22T10:35:34.209Z,1007.04
2018-04-22T10:36:34.184Z,1007.03
2018-04-22T10:37:34.161Z,1006.99
2018-04-22T10:38:34.140Z,1007.02
2018-04-22T10:39:34.120Z,1007.00
2018-04-22T10:40:34.128Z,1007.02
2018-04-22T10:41:34.093Z,1006.98
2018-04-22T10:42:34.068Z,1006.94
2018-04-22T10:43:34.040Z,1006.94
2018-04-22T10:44:34.021Z,1006.85
2018-04-22T10:45:34.002Z,1006.82
2018-04-22T10:46:33.986Z,1006.84
2018-04-22T10:47:33.970Z,1006.84
2018-04-22T10:48:33.947Z,1006.81
2018-04-22T10:49:33.931Z,1006.81
2018-04-22T10:50:33.909Z,1006.80
2018-04-22T10:51:33.893Z,1006.79
2018-04-22T10:52:33.873Z,1006.85
2018-04-22T10:53:33.853Z,1006.81
2018-04-22T10:54:33.831Z,1006.82
2018-04-22T10:55:33.824Z,1006.83
2018-04-22T10:56:33.793Z,1006.80
2018-04-22T10:57:33.778Z,1006.80
2018-04-22T10:58:33.756Z,1006.77
2018-04-22T10:59:33.739Z,1006.80
2018-04-22T11:00:33.723Z,1006.79
2018-04-22T11:01:33.704Z,1006.78
2018-04-22T11:02:33.687Z,1006.79
2018-04-22T11:03:33.668Z,1006.80
2018-04-22T11:04:33.664Z,1006.77
2018-04-22T11:05:34.185Z,1006.78
2018-04-22T11:06:33.610Z,1006.73
2018-04-22T11:07:33.586Z,1006.70
2018-04-22T11:08:33.567Z,1006.69
2018-04-22T11:09:33.549Z,1006.70
2018-04-22T11:10:33.530Z,1006.68
2018-04-22T11:11:33.517Z,1006.67
2018-04-22T11:12:33.497Z,1006.69
2018-04-22T11:13:33.478Z,1006.62
2018-04-22T11:14:33.459Z,1006.62
2018-04-22T11:15:33.441Z,1006.53
2018-04-22T11:16:33.413Z,1006.59
2018-04-22T11:17:33.404Z,1006.59
2018-04-22T11:18:33.384Z,1006.69
2018-04-22T11:19:33.366Z,1006.68
2018-04-22T11:20:33.349Z,1006.65
2018-04-22T11:21:33.328Z,1006.71
2018-04-22T11:22:33.311Z,1006.68
2018-04-22T11:23:33.292Z,1006.70
2018-04-22T11:24:33.271Z,1006.64
2018-04-22T11:25:33.253Z,1006.68
2018-04-22T11:26:33.233Z,1006.65
2018-04-22T11:27:33.221Z,1006.65
2018-04-22T11:28:33.202Z,1006.66
2018-04-22T11:29:33.173Z,1006.64
2018-04-22T11:30:33.165Z,1006.64
2018-04-22T11:31:33.145Z,1006.66
2018-04-22T11:32:33.129Z,1006.64
2018-04-22T11:33:33.105Z,1006.58
2018-04-22T11:34:33.091Z,1006.62
2018-04-22T11:35:33.079Z,1006.56
2018-04-22T11:36:33.056Z,1006.50
2018-04-22T11:37:33.027Z,1006.55
2018-04-22T11:38:33.015Z,1006.51
2018-04-22T11:39:32.992Z,1006.50
2018-04-22T11:40:32.979Z,1006.48
2018-04-22T11:41:32.962Z,1006.54
2018-04-22T11:42:32.945Z,1006.48
2018-04-22T11:43:32.930Z,1006.51
2018-04-22T11:44:32.905Z,1006.53
2018-04-22T11:45:32.892Z,1006.51
2018-04-22T11:46:32.871Z,1006.50
2018-04-22T11:47:32.851Z,1006.48
2018-04-22T11:48:32.919Z,1006.40
2018-04-22T11:49:32.815Z,1006.37
2018-04-22T11:50:32.799Z,1006.40
2018-04-22T11:51:32.783Z,1006.34
2018-04-22T11:52:32.768Z,1006.32
2018-04-22T11:53:32.775Z,1006.32
2018-04-22T11:54:32.724Z,1006.34
2018-04-22T11:55:32.714Z,1006.33
2018-04-22T11:56:32.695Z,1006.33
2018-04-22T11:57:32.673Z,1006.34
2018-04-22T11:58:32.660Z,1006.37
2018-04-22T11:59:32.689Z,1006.33
2018-04-22T12:00:32.625Z,1006.32
2018-04-22T12:01:32.604Z,1006.32
2018-04-22T12:02:32.596Z,1006.29
2018-04-22T12:03:32.568Z,1006.37
2018-04-22T12:04:32.561Z,1006.32
2018-04-22T12:05:32.536Z,1006.32